createdAt,value
2022-07-25T00:03:28.549Z,100192.19
2022-07-25T00:07:30.237Z,100179.25
2022-07-25T00:11:31.873Z,100174.09
2022-07-25T00:15:33.437Z,100169.72
2022-07-25T00:19:35.102Z,100164.47
2022-07-25T00:23:36.729Z,100161.06
2022-07-25T00:27:38.350Z,100155.03
2022-07-25T00:31:40.040Z,100157.66
2022-07-25T00:35:41.722Z,100158.56
2022-07-25T00:39:43.406Z,100169.16
2022-07-25T00:43:45.770Z,100164.03
2022-07-25T00:47:47.349Z,100146.78
2022-07-25T00:51:49.972Z,100148.63
2022-07-25T00:55:52.111Z,100130.56
2022-07-25T00:59:53.749Z,100128.31
2022-07-25T01:03:55.439Z,100131.97
2022-07-25T01:07:58.184Z,100117.16
2022-07-25T01:11:59.805Z,100112.69
2022-07-25T01:16:01.624Z,100109.22
2022-07-25T01:20:03.632Z,100100.47
2022-07-25T01:24:06.202Z,100096.19
2022-07-25T01:28:08.014Z,100103.22
2022-07-25T01:32:09.598Z,100102.38
2022-07-25T01:36:11.360Z,100102.44
2022-07-25T01:40:13.835Z,100095.56
2022-07-25T01:44:17.216Z,100096.50
2022-07-25T01:48:18.786Z,100101.00
2022-07-25T01:52:21.670Z,100104.59
2022-07-25T01:56:23.277Z,100099.53
2022-07-25T02:00:25.482Z,100107.75
2022-07-25T02:04:27.142Z,100107.06
2022-07-25T02:08:29.892Z,100101.06
2022-07-25T02:12:31.883Z,100107.25
2022-07-25T02:16:33.620Z,100107.31
2022-07-25T02:20:35.257Z,100090.88
2022-07-25T02:24:37.188Z,100096.16
2022-07-25T02:28:39.494Z,100086.63
2022-07-25T02:32:41.127Z,100094.50
2022-07-25T02:36:42.952Z,100082.34
2022-07-25T02:40:44.509Z,100078.91
2022-07-25T02:44:46.169Z,100072.06
2022-07-25T02:48:47.833Z,100076.41
2022-07-25T02:52:49.468Z,100070.31
2022-07-25T02:56:51.062Z,100075.53
2022-07-25T03:00:52.725Z,100068.63
2022-07-25T03:04:54.356Z,100070.44
2022-07-25T03:08:56.017Z,100064.47
2022-07-25T03:12:57.587Z,100069.84
2022-07-25T03:16:59.256Z,100064.72
2022-07-25T03:21:01.237Z,100070.88
2022-07-25T03:25:03.123Z,100067.41
2022-07-25T03:29:04.799Z,100062.31
2022-07-25T03:33:06.408Z,100052.84
2022-07-25T03:37:07.971Z,100056.47
2022-07-25T03:41:09.605Z,100058.25
2022-07-25T03:45:11.568Z,100052.16
2022-07-25T03:49:13.241Z,100043.41
2022-07-25T03:53:14.896Z,100053.88
2022-07-25T03:57:16.491Z,100043.44
2022-07-25T04:01:18.074Z,100048.66
2022-07-25T04:05:20.942Z,100044.34
2022-07-25T04:09:22.519Z,100046.94
2022-07-25T04:13:24.114Z,100039.91
2022-07-25T04:17:25.870Z,100039.88
2022-07-25T04:21:27.601Z,100035.44
2022-07-25T04:25:29.161Z,100031.06
2022-07-25T04:29:30.766Z,100019.03
2022-07-25T04:33:32.366Z,100028.69
2022-07-25T04:37:36.021Z,100020.84
2022-07-25T04:41:37.611Z,100023.47
2022-07-25T04:45:39.694Z,100020.84
2022-07-25T04:49:41.308Z,100017.41
2022-07-25T04:53:42.923Z,100010.50
2022-07-25T04:57:44.464Z,100019.25
2022-07-25T05:01:46.159Z,100023.50
2022-07-25T05:05:47.807Z,100019.16
2022-07-25T05:09:49.453Z,100009.56
2022-07-25T05:13:51.006Z,100018.25
2022-07-25T05:17:52.642Z,100015.69
2022-07-25T05:21:54.240Z,100014.78
2022-07-25T05:25:55.862Z,100014.75
2022-07-25T05:29:57.527Z,100012.03
2022-07-25T05:33:59.214Z,100013.84
2022-07-25T05:38:00.791Z,100012.03
2022-07-25T05:42:02.322Z,100007.53
2022-07-25T05:46:05.374Z,100017.19
2022-07-25T05:50:07.576Z,100017.88
2022-07-25T05:54:09.638Z,100012.50
2022-07-25T05:58:11.465Z,100015.94
2022-07-25T06:02:13.119Z,100003.69
2022-07-25T06:06:14.737Z,100000.88
2022-07-25T06:10:16.452Z,99991.28
2022-07-25T06:14:18.038Z,99996.53
2022-07-25T06:18:19.742Z,99994.78
2022-07-25T06:22:21.341Z,99981.50
2022-07-25T06:26:24.695Z,99992.63
2022-07-25T06:30:26.738Z,99992.34
2022-07-25T06:34:28.903Z,99995.44
2022-07-25T06:38:30.716Z,99994.41
2022-07-25T06:42:33.354Z,100000.41
2022-07-25T06:46:35.040Z,99988.16
2022-07-25T06:50:36.746Z,99987.19
2022-07-25T06:54:38.626Z,99979.09
2022-07-25T06:58:40.445Z,99974.41
2022-07-25T07:02:58.194Z,99974.31
2022-07-25T07:07:00.094Z,99966.16
2022-07-25T07:11:01.688Z,99964.81
2022-07-25T07:15:03.549Z,99975.72
2022-07-25T07:19:05.500Z,99983.44
2022-07-25T07:23:07.431Z,99973.56
2022-07-25T07:27:10.252Z,99967.06
2022-07-25T07:31:16.982Z,99959.00
2022-07-25T07:35:19.889Z,99965.75
2022-07-25T07:39:21.522Z,99966.31
2022-07-25T07:43:29.064Z,99965.84
2022-07-25T07:47:31.425Z,99966.53
2022-07-25T07:51:32.990Z,99968.78
2022-07-25T07:55:48.720Z,99971.69
2022-07-25T07:59:50.345Z,99956.25
2022-07-25T08:03:51.933Z,99954.09
2022-07-25T08:07:54.183Z,99958.00
2022-07-25T08:11:55.817Z,99959.31
2022-07-25T08:15:59.119Z,99969.28
2022-07-25T08:20:14.735Z,99967.88
2022-07-25T08:24:22.416Z,99963.84
2022-07-25T08:28:25.045Z,99955.50
2022-07-25T08:32:29.857Z,99953.19
2022-07-25T08:36:34.830Z,99954.38
2022-07-25T08:40:36.754Z,99951.94
2022-07-25T08:44:41.254Z,99951.41
2022-07-25T08:48:44.584Z,99941.16
2022-07-25T08:52:48.235Z,99941.69
2022-07-25T08:56:49.911Z,99931.56
2022-07-25T09:00:51.595Z,99921.44
2022-07-25T09:04:55.869Z,99932.22
2022-07-25T09:09:00.306Z,99929.94
2022-07-25T09:13:04.851Z,99918.13
2022-07-25T09:17:07.095Z,99922.84
2022-07-25T09:21:24.295Z,99917.09
2022-07-25T09:25:31.128Z,99920.97
2022-07-25T09:29:34.264Z,99915.06
2022-07-25T09:33:48.832Z,99909.72
2022-07-25T09:37:50.419Z,99898.41
2022-07-25T09:41:52.063Z,99886.28
2022-07-25T09:45:53.763Z,99882.06
2022-07-25T09:49:55.889Z,99881.22
2022-07-25T09:53:57.548Z,99875.31
2022-07-25T09:57:59.208Z,99870.31
2022-07-25T10:02:23.234Z,99866.88
2022-07-25T10:06:35.977Z,99856.91
2022-07-25T10:10:40.090Z,99847.84
2022-07-25T10:14:42.028Z,99843.13
2022-07-25T10:18:54.830Z,99840.53
2022-07-25T10:22:57.573Z,99836.28
2022-07-25T10:27:07.860Z,99832.88
2022-07-25T10:31:33.841Z,99835.03
2022-07-25T10:35:35.595Z,99831.66
2022-07-25T10:39:39.400Z,99835.75
2022-07-25T10:43:43.639Z,99833.78
2022-07-25T10:47:55.710Z,99832.75
2022-07-25T10:52:01.036Z,99833.53
2022-07-25T10:56:08.498Z,99825.81
2022-07-25T11:00:10.716Z,99817.78
2022-07-25T11:04:15.811Z,99823.25
2022-07-25T11:08:24.662Z,99820.16
2022-07-25T11:12:26.917Z,99816.72
2022-07-25T11:16:29.648Z,99811.78
2022-07-25T11:20:31.266Z,99813.22
2022-07-25T11:24:42.901Z,99806.47
2022-07-25T11:28:47.736Z,99805.31
2022-07-25T11:32:56.096Z,99802.19
2022-07-25T11:36:59.720Z,99809.31
2022-07-25T11:41:01.666Z,99810.50
2022-07-25T11:45:03.499Z,99808.47
2022-07-25T11:49:06.642Z,99810.38
2022-07-25T11:53:14.448Z,99804.72
2022-07-25T11:57:21.590Z,99801.97
2022-07-25T12:01:24.720Z,99796.13
2022-07-25T12:05:33.335Z,99791.16
2022-07-25T12:09:34.953Z,99780.75
2022-07-25T12:13:37.117Z,99781.19
2022-07-25T12:17:38.845Z,99772.31
2022-07-25T12:21:40.516Z,99775.28
2022-07-25T12:25:45.303Z,99765.50
2022-07-25T12:29:46.895Z,99749.00
2022-07-25T12:33:49.319Z,99744.75
2022-07-25T12:37:52.076Z,99735.41
2022-07-25T12:41:54.247Z,99733.22
2022-07-25T12:45:55.909Z,99732.25
2022-07-25T12:49:57.612Z,99741.41
2022-07-25T12:53:59.231Z,99721.84
2022-07-25T12:58:01.128Z,99717.09
2022-07-25T13:02:03.023Z,99720.69
2022-07-25T13:06:05.067Z,99719.69
2022-07-25T13:10:07.668Z,99725.50
2022-07-25T13:14:09.506Z,99727.75
2022-07-25T13:18:11.335Z,99730.41
2022-07-25T13:22:13.049Z,99737.75
2022-07-25T13:26:14.915Z,99741.03
2022-07-25T13:30:16.578Z,99738.06
2022-07-25T13:34:18.709Z,99742.91
2022-07-25T13:38:20.485Z,99737.78
2022-07-25T13:42:22.372Z,99737.81
2022-07-25T13:46:24.540Z,99739.31
2022-07-25T13:50:26.197Z,99743.50
2022-07-25T13:54:27.780Z,99738.34
2022-07-25T13:58:29.660Z,99758.84
2022-07-25T14:02:31.750Z,99752.56
2022-07-25T14:06:34.133Z,99747.81
2022-07-25T14:10:35.797Z,99767.38
2022-07-25T14:14:37.533Z,99763.44
2022-07-25T14:18:39.133Z,99753.53
2022-07-25T14:22:42.130Z,99751.78
2022-07-25T14:26:43.702Z,99747.72
2022-07-25T14:30:45.361Z,99757.03
2022-07-25T14:34:47.004Z,99743.41
2022-07-25T14:38:48.902Z,99740.13
2022-07-25T14:42:50.522Z,99730.88
2022-07-25T14:46:52.663Z,99730.19
2022-07-25T14:50:54.719Z,99717.22
2022-07-25T14:54:56.286Z,99717.69
2022-07-25T14:58:58.135Z,99722.56
2022-07-25T15:02:59.740Z,99720.13
2022-07-25T15:07:01.385Z,99714.13
2022-07-25T15:11:02.983Z,99712.94
2022-07-25T15:15:05.312Z,99714.16
2022-07-25T15:19:18.014Z,99713.75
2022-07-25T15:23:21.104Z,99723.97
2022-07-25T15:27:22.924Z,99716.91
2022-07-25T15:31:26.410Z,99703.25
2022-07-25T15:35:28.170Z,99714.81
2022-07-25T15:39:29.982Z,99712.44
2022-07-25T15:43:33.220Z,99719.97
2022-07-25T15:47:34.894Z,99715.13
2022-07-25T15:51:36.502Z,99711.50
2022-07-25T15:55:39.751Z,99729.03
2022-07-25T15:59:41.323Z,99712.63
2022-07-25T16:03:43.337Z,99707.16
2022-07-25T16:07:45.067Z,99718.84
2022-07-25T16:11:46.688Z,99717.88
2022-07-25T16:15:48.354Z,99709.06
2022-07-25T16:19:49.999Z,99726.13
2022-07-25T16:23:51.571Z,99731.50
2022-07-25T16:27:54.048Z,99728.97
2022-07-25T16:31:56.911Z,99743.25
2022-07-25T16:35:58.603Z,99751.00
2022-07-25T16:40:00.177Z,99759.63
2022-07-25T16:44:01.778Z,99770.25
2022-07-25T16:48:06.193Z,99777.63
2022-07-25T16:52:07.812Z,99787.88
2022-07-25T16:56:09.422Z,99804.50
2022-07-25T17:00:11.608Z,99813.09
2022-07-25T17:04:13.225Z,99821.06
2022-07-25T17:08:14.860Z,99829.31
2022-07-25T17:12:17.427Z,99829.09
2022-07-25T17:16:19.305Z,99840.19
2022-07-25T17:20:21.150Z,99851.25
2022-07-25T17:24:22.759Z,99840.25
2022-07-25T17:28:24.473Z,99865.69
2022-07-25T17:32:29.741Z,99859.13
2022-07-25T17:36:31.902Z,99868.47
2022-07-25T17:40:34.101Z,99870.88
2022-07-25T17:44:35.829Z,99883.13
2022-07-25T17:48:37.564Z,99886.63
2022-07-25T17:52:39.266Z,99894.50
2022-07-25T17:56:40.916Z,99897.56
2022-07-25T18:00:42.475Z,99893.69
2022-07-25T18:04:44.311Z,99919.13
2022-07-25T18:08:46.142Z,99924.00
2022-07-25T18:12:48.364Z,99939.38
2022-07-25T18:16:50.032Z,99939.75
2022-07-25T18:20:51.697Z,99952.97
2022-07-25T18:24:53.314Z,99950.47
2022-07-25T18:28:55.187Z,99949.34
2022-07-25T18:32:56.949Z,99956.91
2022-07-25T18:36:58.824Z,99956.69
2022-07-25T18:41:26.378Z,99957.00
2022-07-25T18:45:22.187Z,99969.56
2022-07-25T18:49:27.096Z,99966.69
2022-07-25T18:53:28.699Z,99971.53
2022-07-25T18:57:30.736Z,99970.22
2022-07-25T19:01:32.433Z,99974.25
2022-07-25T19:05:34.172Z,99984.31
2022-07-25T19:09:36.056Z,99994.53
2022-07-25T19:13:49.579Z,100003.06
2022-07-25T19:17:51.893Z,100013.16
2022-07-25T19:21:53.667Z,100016.97
2022-07-25T19:25:55.405Z,100035.78
2022-07-25T19:29:57.153Z,100030.94
2022-07-25T19:33:58.821Z,100034.00
2022-07-25T19:38:00.407Z,100045.09
2022-07-25T19:42:02.905Z,100046.56
2022-07-25T19:46:04.572Z,100054.16
2022-07-25T19:50:06.956Z,100053.53
2022-07-25T19:54:08.932Z,100050.13
2022-07-25T19:58:10.840Z,100060.69
2022-07-25T20:02:13.084Z,100056.22
2022-07-25T20:06:14.891Z,100065.41
2022-07-25T20:10:18.067Z,100088.59
2022-07-25T20:14:19.894Z,100097.75
2022-07-25T20:18:21.499Z,100102.50
2022-07-25T20:22:23.378Z,100120.56
2022-07-25T20:26:25.125Z,100128.97
2022-07-25T20:30:29.296Z,100123.94
2022-07-25T20:34:34.621Z,100141.59
2022-07-25T20:38:36.542Z,100134.84
2022-07-25T20:42:38.639Z,100133.06
2022-07-25T20:46:40.413Z,100152.44
2022-07-25T20:50:42.789Z,100155.22
2022-07-25T20:54:44.472Z,100158.69
2022-07-25T20:58:46.081Z,100162.22
2022-07-25T21:02:47.794Z,100173.56
2022-07-25T21:06:49.545Z,100183.44
2022-07-25T21:10:51.436Z,100187.97
2022-07-25T21:14:53.375Z,100186.63
2022-07-25T21:18:57.050Z,100192.72
2022-07-25T21:22:58.796Z,100192.88
2022-07-25T21:27:00.447Z,100198.91
2022-07-25T21:31:02.054Z,100201.41
2022-07-25T21:35:05.469Z,100208.94
2022-07-25T21:39:07.584Z,100201.84
2022-07-25T21:43:12.920Z,100195.84
2022-07-25T21:47:14.954Z,100202.97
2022-07-25T21:51:19.093Z,100200.47
2022-07-25T21:55:24.851Z,100202.66
2022-07-25T21:59:26.430Z,100195.09
2022-07-25T22:03:28.162Z,100199.63
2022-07-25T22:07:29.789Z,100201.44
2022-07-25T22:11:42.358Z,100202.03
2022-07-25T22:15:48.378Z,100204.41
2022-07-25T22:19:49.976Z,100208.63
2022-07-25T22:23:51.588Z,100220.53
2022-07-25T22:27:53.398Z,100224.09
2022-07-25T22:31:55.124Z,100229.31
2022-07-25T22:35:57.569Z,100240.47
2022-07-25T22:40:01.123Z,100237.84
2022-07-25T22:44:03.497Z,100233.41
2022-07-25T22:48:05.237Z,100235.94
2022-07-25T22:52:07.832Z,100241.19
2022-07-25T22:56:09.544Z,100243.72
2022-07-25T23:00:12.212Z,100246.47
2022-07-25T23:04:14.020Z,100240.44
2022-07-25T23:08:15.698Z,100257.28
2022-07-25T23:12:18.582Z,100258.38
2022-07-25T23:16:20.409Z,100262.06
2022-07-25T23:20:22.163Z,100260.50
2022-07-25T23:24:23.807Z,100267.50
2022-07-25T23:28:25.381Z,100256.81
2022-07-25T23:32:26.946Z,100257.66
2022-07-25T23:36:28.494Z,100259.53
2022-07-25T23:40:30.358Z,100259.81
2022-07-25T23:44:32.053Z,100255.78
2022-07-25T23:48:34.100Z,100256.78
2022-07-25T23:52:35.750Z,100266.28
2022-07-25T23:56:37.414Z,100265.59
